createdAt,value
2023-04-14T00:02:18.105Z,6.53
2023-04-14T00:04:54.327Z,6.62
2023-04-14T00:07:22.737Z,6.45
2023-04-14T00:09:50.697Z,6.53
2023-04-14T00:12:18.732Z,6.56
2023-04-14T00:14:46.760Z,6.39
2023-04-14T00:17:14.951Z,6.31
2023-04-14T00:19:46.892Z,6.43
2023-04-14T00:22:14.753Z,6.38
2023-04-14T00:24:50.982Z,6.42
2023-04-14T00:27:22.810Z,6.46
2023-04-14T00:29:54.758Z,6.32
2023-04-14T00:32:48.620Z,6.39
2023-04-14T00:35:16.692Z,6.25
2023-04-14T00:37:44.638Z,6.24
2023-04-14T00:40:12.784Z,6.14
2023-04-14T00:42:50.447Z,6.10
2023-04-14T00:45:18.676Z,6.11
2023-04-14T00:50:38.707Z,6.17
2023-04-14T00:53:32.165Z,6.07
2023-04-14T00:56:01.393Z,6.03
2023-04-14T00:58:28.940Z,5.91
2023-04-14T01:00:58.297Z,5.98
2023-04-14T01:03:30.986Z,5.87
2023-04-14T01:05:58.701Z,5.91
2023-04-14T01:08:31.969Z,5.79
2023-04-14T01:11:21.845Z,5.72
2023-04-14T01:14:13.636Z,5.82
2023-04-14T01:16:49.659Z,5.60
2023-04-14T01:19:53.068Z,5.66
2023-04-14T01:22:27.595Z,5.62
2023-04-14T01:25:26.659Z,5.67
2023-04-14T01:28:19.199Z,5.63
2023-04-14T01:31:41.985Z,5.48
2023-04-14T01:34:57.684Z,5.42
2023-04-14T01:37:36.569Z,5.48
2023-04-14T01:40:12.586Z,5.35
2023-04-14T01:42:46.468Z,5.39
2023-04-14T01:45:27.258Z,5.35
2023-04-14T01:48:00.931Z,5.29
2023-04-14T01:50:35.013Z,5.36
2023-04-14T01:53:08.645Z,5.35
2023-04-14T01:55:38.027Z,5.38
2023-04-14T01:58:32.248Z,5.42
2023-04-14T02:01:00.790Z,5.35
2023-04-14T02:06:46.668Z,5.29
2023-04-14T02:09:26.946Z,5.24
2023-04-14T02:11:56.802Z,5.15
2023-04-14T02:14:27.392Z,5.22
2023-04-14T02:17:02.741Z,5.17
2023-04-14T02:19:33.878Z,5.22
2023-04-14T02:22:03.597Z,5.03
2023-04-14T02:27:37.441Z,5.03
2023-04-14T02:30:12.396Z,5.01
2023-04-14T02:32:45.898Z,4.99
2023-04-14T02:35:17.018Z,5.05
2023-04-14T02:37:50.660Z,4.91
2023-04-14T02:40:22.056Z,4.81
2023-04-14T02:42:56.096Z,4.81
2023-04-14T02:45:28.775Z,4.80
2023-04-14T02:48:03.425Z,4.76
2023-04-14T02:50:33.875Z,4.75
2023-04-14T02:53:11.640Z,4.66
2023-04-14T02:55:39.724Z,4.72
2023-04-14T02:58:07.435Z,4.73
2023-04-14T03:00:40.591Z,4.66
2023-04-14T03:03:13.014Z,4.68
2023-04-14T03:05:47.763Z,4.72
2023-04-14T03:08:21.713Z,4.58
2023-04-14T03:10:51.865Z,4.61
2023-04-14T03:13:25.694Z,4.62
2023-04-14T03:15:53.564Z,4.63
2023-04-14T03:21:16.733Z,4.46
2023-04-14T03:23:57.851Z,4.42
2023-04-14T03:26:25.493Z,4.36
2023-04-14T03:28:54.857Z,4.42
2023-04-14T03:31:47.655Z,4.46
2023-04-14T03:34:17.823Z,4.39
2023-04-14T03:37:01.898Z,4.44
2023-04-14T03:39:37.744Z,4.32
2023-04-14T03:42:33.247Z,4.35
2023-04-14T03:48:34.037Z,4.24
2023-04-14T03:51:11.253Z,4.29
2023-04-14T03:53:41.808Z,4.45
2023-04-14T03:56:13.831Z,4.28
2023-04-14T03:59:10.120Z,4.41
2023-04-14T04:01:41.152Z,4.29
2023-04-14T04:04:15.629Z,4.31
2023-04-14T04:07:12.891Z,4.24
2023-04-14T04:09:42.930Z,4.26
2023-04-14T04:12:18.120Z,4.17
2023-04-14T04:14:46.972Z,4.20
2023-04-14T04:17:18.259Z,4.14
2023-04-14T04:19:54.831Z,4.17
2023-04-14T04:22:26.031Z,4.10
2023-04-14T04:24:54.795Z,4.08
2023-04-14T04:27:28.490Z,4.07
2023-04-14T04:30:24.432Z,4.24
2023-04-14T04:32:52.893Z,4.00
2023-04-14T04:35:22.030Z,3.97
2023-04-14T04:37:58.758Z,3.98
2023-04-14T04:40:26.708Z,3.97
2023-04-14T04:42:54.737Z,3.96
2023-04-14T04:46:02.225Z,3.94
2023-04-14T04:48:30.692Z,3.97
2023-04-14T04:50:58.697Z,4.00
2023-04-14T04:53:26.715Z,4.03
2023-04-14T04:55:55.826Z,4.00
2023-04-14T04:58:22.799Z,3.98
2023-04-14T05:00:55.750Z,3.98
2023-04-14T05:03:22.824Z,3.91
2023-04-14T05:05:50.827Z,3.93
2023-04-14T05:08:18.661Z,3.97
2023-04-14T05:10:46.944Z,3.93
2023-04-14T05:13:14.663Z,3.93
2023-04-14T05:15:43.999Z,3.97
2023-04-14T05:18:10.779Z,3.98
2023-04-14T05:20:38.949Z,4.01
2023-04-14T05:23:07.276Z,4.04
2023-04-14T05:26:26.996Z,4.10
2023-04-14T05:28:58.792Z,4.17
2023-04-14T05:34:44.686Z,4.21
2023-04-14T05:37:12.682Z,4.25
2023-04-14T05:39:45.223Z,4.28
2023-04-14T05:42:12.754Z,4.38
2023-04-14T05:44:40.838Z,4.38
2023-04-14T05:47:08.657Z,4.41
2023-04-14T05:49:36.722Z,4.51
2023-04-14T05:52:09.976Z,4.62
2023-04-14T05:54:46.318Z,4.63
2023-04-14T05:57:19.699Z,4.75
2023-04-14T05:59:46.732Z,4.79
2023-04-14T06:02:14.993Z,4.84
2023-04-14T06:04:45.254Z,4.90
2023-04-14T06:07:38.298Z,5.05
2023-04-14T06:10:07.107Z,5.03
2023-04-14T06:12:40.911Z,5.14
2023-04-14T06:15:08.874Z,5.27
2023-04-14T06:17:36.686Z,5.34
2023-04-14T06:20:05.145Z,5.53
2023-04-14T06:22:37.733Z,5.65
2023-04-14T06:25:05.068Z,5.82
2023-04-14T06:30:30.733Z,6.08
2023-04-14T06:32:59.507Z,6.22
2023-04-14T06:35:34.956Z,6.33
2023-04-14T06:38:27.321Z,6.52
2023-04-14T06:41:01.149Z,6.70
2023-04-14T06:43:29.281Z,6.79
2023-04-14T06:45:56.931Z,6.98
2023-04-14T06:48:25.430Z,7.17
2023-04-14T06:50:57.472Z,7.28
2023-04-14T06:53:26.037Z,7.43
2023-04-14T06:56:01.067Z,7.59
2023-04-14T06:58:29.123Z,7.64
2023-04-14T07:01:01.503Z,7.79
2023-04-14T07:03:31.018Z,7.86
2023-04-14T07:06:06.784Z,8.05
2023-04-14T07:08:36.568Z,8.14
2023-04-14T07:11:08.898Z,8.32
2023-04-14T07:16:35.762Z,8.71
2023-04-14T07:19:02.772Z,8.67
2023-04-14T07:21:31.799Z,8.74
2023-04-14T07:24:03.990Z,8.87
2023-04-14T07:26:32.790Z,8.91
2023-04-14T07:29:04.830Z,9.07
2023-04-14T07:31:39.670Z,9.25
2023-04-14T07:34:07.084Z,9.35
2023-04-14T07:36:40.675Z,9.39
2023-04-14T07:39:12.986Z,9.50
2023-04-14T07:41:41.212Z,9.54
2023-04-14T07:44:08.750Z,9.42
2023-04-14T07:46:36.804Z,9.42
2023-04-14T07:49:08.788Z,9.33
2023-04-14T07:51:36.725Z,9.56
2023-04-14T07:54:06.181Z,9.43
2023-04-14T07:56:34.642Z,9.70
2023-04-14T07:59:02.997Z,9.74
2023-04-14T08:01:36.091Z,10.18
2023-04-14T08:04:05.175Z,10.33
2023-04-14T08:09:24.723Z,10.37
2023-04-14T08:12:16.787Z,10.04
2023-04-14T08:14:47.848Z,10.22
2023-04-14T08:17:14.789Z,10.37
2023-04-14T08:19:47.317Z,10.57
2023-04-14T08:22:14.646Z,10.64
2023-04-14T08:27:39.304Z,10.24
2023-04-14T08:30:09.468Z,10.84
2023-04-14T08:32:38.981Z,10.66
2023-04-14T08:35:38.677Z,10.92
2023-04-14T08:41:20.239Z,10.92
2023-04-14T08:43:48.889Z,11.23
2023-04-14T08:46:42.901Z,11.56
2023-04-14T08:49:15.933Z,11.45
2023-04-14T08:51:47.868Z,11.42
2023-04-14T08:54:20.923Z,11.74
2023-04-14T08:56:49.187Z,11.11
2023-04-14T08:59:17.289Z,11.60
2023-04-14T09:01:46.345Z,11.88
2023-04-14T09:04:17.116Z,11.63
2023-04-14T09:06:45.170Z,11.87
2023-04-14T09:09:13.347Z,11.84
2023-04-14T09:11:42.149Z,12.14
2023-04-14T09:14:14.018Z,11.95
2023-04-14T09:17:06.814Z,12.20
2023-04-14T09:19:35.295Z,11.60
2023-04-14T09:22:02.920Z,11.69
2023-04-14T09:24:35.813Z,11.55
2023-04-14T09:27:06.109Z,11.69
2023-04-14T09:29:34.845Z,11.78
2023-04-14T09:35:00.552Z,11.95
2023-04-14T09:37:55.503Z,11.84
2023-04-14T09:40:34.867Z,12.06
2023-04-14T09:43:02.968Z,11.90
2023-04-14T09:45:46.911Z,12.18
2023-04-14T09:48:56.757Z,12.43
2023-04-14T09:51:29.551Z,12.46
2023-04-14T09:54:03.290Z,12.57
2023-04-14T09:56:30.896Z,12.08
2023-04-14T09:59:01.223Z,12.61
2023-04-14T10:01:34.255Z,11.91
2023-04-14T10:04:04.387Z,12.63
2023-04-14T10:06:33.025Z,12.59
2023-04-14T10:11:49.442Z,12.53
2023-04-14T10:14:42.254Z,12.67
2023-04-14T10:17:35.023Z,13.01
2023-04-14T10:20:04.511Z,12.93
2023-04-14T10:22:33.237Z,13.03
2023-04-14T10:25:01.639Z,12.60
2023-04-14T10:27:31.529Z,12.96
2023-04-14T10:29:59.604Z,13.01
2023-04-14T10:35:23.243Z,12.96
2023-04-14T10:37:53.784Z,12.48
2023-04-14T10:40:22.782Z,12.69
2023-04-14T10:42:57.284Z,13.00
2023-04-14T10:45:24.810Z,12.61
2023-04-14T10:47:53.286Z,12.56
2023-04-14T10:50:55.060Z,13.08
2023-04-14T10:53:33.983Z,12.42
2023-04-14T10:56:02.896Z,13.16
2023-04-14T10:59:03.528Z,13.36
2023-04-14T11:01:32.580Z,13.03
2023-04-14T11:04:19.730Z,12.77
2023-04-14T11:07:20.901Z,12.60
2023-04-14T11:09:49.213Z,12.29
2023-04-14T11:12:29.835Z,12.93
2023-04-14T11:15:22.243Z,12.25
2023-04-14T11:17:51.278Z,13.26
2023-04-14T11:20:20.959Z,12.59
2023-04-14T11:22:50.586Z,12.94
2023-04-14T11:25:24.163Z,13.03
2023-04-14T11:28:31.739Z,13.00
2023-04-14T11:31:00.049Z,12.79
2023-04-14T11:33:52.821Z,12.71
2023-04-14T11:36:20.679Z,11.99
2023-04-14T11:39:15.993Z,12.66
2023-04-14T11:41:47.541Z,12.71
2023-04-14T11:44:19.626Z,12.69
2023-04-14T11:46:54.186Z,12.55
2023-04-14T11:49:33.456Z,12.46
2023-04-14T11:52:07.815Z,12.80
2023-04-14T11:54:40.779Z,12.36
2023-04-14T11:57:36.659Z,12.04
2023-04-14T12:00:06.069Z,11.83
2023-04-14T12:02:35.982Z,12.05
2023-04-14T12:05:12.135Z,11.99
2023-04-14T12:07:42.818Z,12.04
2023-04-14T12:10:11.167Z,11.45
2023-04-14T12:12:38.831Z,11.71
2023-04-14T12:15:10.382Z,12.15
2023-04-14T12:17:44.164Z,11.98
2023-04-14T12:20:21.372Z,12.32
2023-04-14T12:22:50.016Z,12.20
2023-04-14T12:25:24.669Z,12.31
2023-04-14T12:27:55.742Z,12.56
2023-04-14T12:30:52.992Z,11.98
2023-04-14T12:33:31.631Z,12.35
2023-04-14T12:36:22.714Z,12.77
2023-04-14T12:39:05.094Z,12.93
2023-04-14T12:42:04.236Z,12.94
2023-04-14T12:44:34.045Z,13.10
2023-04-14T12:47:11.050Z,12.90
2023-04-14T16:54:09.018Z,11.60
2023-04-14T17:04:45.706Z,11.48
2023-04-14T18:15:49.487Z,10.26
2023-04-14T18:18:16.793Z,9.98
2023-04-14T18:20:50.184Z,10.05
2023-04-14T18:23:19.149Z,10.12
2023-04-14T18:28:21.724Z,9.87
2023-04-14T18:31:00.561Z,9.99
2023-04-14T18:33:29.568Z,9.75
2023-04-14T18:35:58.496Z,9.97
2023-04-14T18:38:51.566Z,9.80
2023-04-14T18:41:19.822Z,9.90
2023-04-14T18:44:16.962Z,9.74
2023-04-14T18:46:51.705Z,9.90
2023-04-14T18:49:19.250Z,9.75
2023-04-14T18:52:13.020Z,9.87
2023-04-14T18:54:45.082Z,9.81
2023-04-14T18:57:12.820Z,9.33
2023-04-14T19:00:07.043Z,9.60
2023-04-14T19:02:39.191Z,9.50
2023-04-14T19:05:08.166Z,9.32
2023-04-14T19:07:41.046Z,9.43
2023-04-14T19:10:36.166Z,9.26
2023-04-14T19:13:12.659Z,9.60
2023-04-14T19:15:53.923Z,9.44
2023-04-14T19:18:20.714Z,9.35
2023-04-14T19:20:49.560Z,9.43
2023-04-14T19:23:17.172Z,9.32
2023-04-14T19:25:49.977Z,9.31
2023-04-14T19:28:31.578Z,9.40
2023-04-14T19:31:05.064Z,9.31
2023-04-14T19:33:32.929Z,9.50
2023-04-14T19:36:15.149Z,9.40
2023-04-14T19:38:42.997Z,9.44
2023-04-14T19:41:16.184Z,9.18
2023-04-14T19:43:45.661Z,9.10
2023-04-14T19:46:13.409Z,9.39
2023-04-14T19:48:41.040Z,9.52
2023-04-14T19:51:09.163Z,9.47
2023-04-14T19:53:37.696Z,9.64
2023-04-14T19:56:05.781Z,9.60
2023-04-14T19:58:33.077Z,9.60
2023-04-14T20:01:09.599Z,9.64
2023-04-14T20:04:11.965Z,9.61
2023-04-14T20:06:41.391Z,9.50
2023-04-14T20:09:09.239Z,9.61
2023-04-14T20:11:42.656Z,9.53
2023-04-14T20:14:10.727Z,9.53
2023-04-14T20:16:38.817Z,9.60
2023-04-14T20:19:32.903Z,9.40
2023-04-14T20:22:01.188Z,9.59
2023-04-14T20:24:29.353Z,9.61
2023-04-14T20:27:23.844Z,9.64
2023-04-14T20:29:51.695Z,9.54
2023-04-14T20:35:11.360Z,9.61
2023-04-14T20:37:38.684Z,9.61
2023-04-14T20:40:07.922Z,9.53
2023-04-14T20:42:34.794Z,9.39
2023-04-14T20:45:10.256Z,9.53
2023-04-14T20:47:38.905Z,9.46
2023-04-14T20:50:36.461Z,9.38
2023-04-14T20:53:10.002Z,9.53
2023-04-14T20:55:36.759Z,9.52
2023-04-14T20:58:09.274Z,9.49
2023-04-14T21:00:43.376Z,9.46
2023-04-14T21:03:11.584Z,9.36
2023-04-14T21:05:38.731Z,9.44
2023-04-14T21:08:40.522Z,9.49
2023-04-14T21:11:23.760Z,9.53
2023-04-14T21:15:44.488Z,9.47
2023-04-14T21:16:43.929Z,9.49
2023-04-14T21:19:13.276Z,9.36
2023-04-14T21:21:40.790Z,9.44
2023-04-14T21:24:08.677Z,9.59
2023-04-14T21:26:42.181Z,9.57
2023-04-14T21:29:10.747Z,9.46
2023-04-14T21:31:39.250Z,9.36
2023-04-14T21:34:06.707Z,9.46
2023-04-14T21:39:42.786Z,9.31
2023-04-14T21:42:15.923Z,9.22
2023-04-14T21:44:42.883Z,9.28
2023-04-14T21:47:18.053Z,9.22
2023-04-14T21:52:39.674Z,9.11
2023-04-14T21:55:12.408Z,9.12
2023-04-14T21:57:44.191Z,9.15
2023-04-14T22:00:24.076Z,9.16
2023-04-14T22:02:56.517Z,9.10
2023-04-14T22:05:53.303Z,9.11
2023-04-14T22:08:28.494Z,8.95
2023-04-14T22:10:57.286Z,9.08
2023-04-14T22:13:25.056Z,9.01
2023-04-14T22:15:58.085Z,9.12
2023-04-14T22:18:24.731Z,8.91
2023-04-14T22:21:18.971Z,8.90
2023-04-14T22:23:48.572Z,8.97
2023-04-14T22:29:11.759Z,8.93
2023-04-14T22:31:38.797Z,8.88
2023-04-14T22:34:06.751Z,8.83
2023-04-14T22:36:40.895Z,8.81
